Time;durP1;ratioP1;P1;durP2;ratioP2;P2;SDS_P1;SDS_P2;PMS_P1;PMS_P2;Temp;Humidity;BMP_temperature;BMP_pressure;BME280_temperature;BME280_humidity;BME280_pressure;Samples;Min_cycle;Max_cycle;Signal;HPM_P1;HPM_P2
2021/09/20 00:00:54;;;;;;;11.75;7.35;;;23.30;51.80;;;;;;6182244;28;80488;-60
2021/09/20 00:03:55;;;;;;;12.18;8.40;;;23.30;52.30;;;;;;6176475;28;80295;-61
2021/09/20 00:06:55;;;;;;;10.98;7.68;;;23.30;51.80;;;;;;6193419;28;81756;-61
2021/09/20 00:09:56;;;;;;;12.85;8.07;;;23.30;51.90;;;;;;6188970;28;80647;-61
2021/09/20 00:12:56;;;;;;;10.43;7.40;;;23.30;51.90;;;;;;6181997;28;80633;-62
2021/09/20 00:15:57;;;;;;;11.52;8.02;;;23.30;51.90;;;;;;6179668;28;80406;-61
2021/09/20 00:18:57;;;;;;;11.05;7.90;;;23.30;52.00;;;;;;6180217;28;80355;-61
2021/09/20 00:21:58;;;;;;;11.13;7.80;;;23.30;52.20;;;;;;6171504;28;81767;-61
2021/09/20 00:24:58;;;;;;;12.27;7.50;;;23.30;52.20;;;;;;6180704;28;80267;-61
2021/09/20 00:27:59;;;;;;;12.05;7.68;;;23.30;52.30;;;;;;6182967;28;80826;-62
2021/09/20 00:30:59;;;;;;;10.57;7.22;;;23.30;52.20;;;;;;6185099;28;80980;-62
2021/09/20 00:34:00;;;;;;;12.05;8.30;;;23.30;51.90;;;;;;6181657;28;80654;-61
2021/09/20 00:37:00;;;;;;;11.02;8.02;;;23.30;52.00;;;;;;6182739;28;80501;-61
2021/09/20 00:40:01;;;;;;;11.35;7.80;;;23.30;51.60;;;;;;6190957;28;80486;-61
2021/09/20 00:43:01;;;;;;;10.70;7.45;;;23.30;51.90;;;;;;6184955;28;80976;-63
2021/09/20 00:46:01;;;;;;;13.18;8.15;;;23.30;51.80;;;;;;6191574;28;81026;-62
2021/09/20 00:49:02;;;;;;;11.75;8.25;;;23.30;51.90;;;;;;6197308;28;81200;-61
2021/09/20 00:52:02;;;;;;;10.15;7.40;;;23.30;51.80;;;;;;6200933;28;80949;-61
2021/09/20 00:55:03;;;;;;;10.48;7.68;;;23.30;52.30;;;;;;6173616;28;83075;-61
2021/09/20 00:58:03;;;;;;;11.55;7.90;;;23.30;51.90;;;;;;6187667;28;80403;-61
2021/09/20 01:01:04;;;;;;;10.73;7.63;;;23.20;52.00;;;;;;6189401;28;81394;-61
2021/09/20 01:04:04;;;;;;;12.18;7.78;;;23.30;52.20;;;;;;6194618;28;80640;-62
2021/09/20 01:07:05;;;;;;;10.30;7.30;;;23.30;52.10;;;;;;6186124;28;80933;-62
2021/09/20 01:10:05;;;;;;;12.52;8.13;;;23.20;52.20;;;;;;6191653;28;81318;-62
2021/09/20 01:13:06;;;;;;;11.40;7.93;;;23.20;52.50;;;;;;6197059;28;80677;-61
2021/09/20 01:16:06;;;;;;;11.25;7.53;;;23.20;52.20;;;;;;6195633;28;80809;-61
2021/09/20 01:19:07;;;;;;;12.95;8.07;;;23.20;52.20;;;;;;6195654;28;80392;-62
2021/09/20 01:22:07;;;;;;;11.00;6.78;;;23.20;52.00;;;;;;6186078;28;80653;-61
2021/09/20 01:25:08;;;;;;;11.00;7.85;;;23.20;52.20;;;;;;6181662;28;80915;-61
2021/09/20 01:28:08;;;;;;;10.80;7.40;;;23.20;51.80;;;;;;6190881;28;80399;-61
2021/09/20 01:31:09;;;;;;;12.23;7.68;;;23.20;52.20;;;;;;6200207;28;80593;-61
2021/09/20 01:34:09;;;;;;;10.02;7.68;;;23.20;52.40;;;;;;6200784;28;81373;-62
2021/09/20 01:37:10;;;;;;;11.88;7.68;;;23.20;52.20;;;;;;6189536;28;80414;-62
2021/09/20 01:40:10;;;;;;;11.15;7.20;;;23.20;52.40;;;;;;6175765;28;81136;-61
2021/09/20 01:43:11;;;;;;;12.95;7.25;;;23.20;52.20;;;;;;6183473;28;80547;-61
2021/09/20 01:46:11;;;;;;;10.07;7.43;;;23.20;52.40;;;;;;6178217;28;80711;-62
2021/09/20 01:49:12;;;;;;;11.15;7.32;;;23.20;52.50;;;;;;6177181;28;81638;-61
2021/09/20 01:52:12;;;;;;;11.07;6.85;;;23.20;52.40;;;;;;6174204;28;80429;-61
2021/09/20 01:55:13;;;;;;;11.48;7.43;;;23.20;52.70;;;;;;6182234;28;80487;-61
2021/09/20 01:58:13;;;;;;;10.30;7.20;;;23.20;52.30;;;;;;6183114;28;80421;-61
2021/09/20 02:01:14;;;;;;;13.32;6.30;;;23.20;52.30;;;;;;6183656;28;80489;-61
2021/09/20 02:04:15;;;;;;;9.00;6.45;;;23.20;52.10;;;;;;6184016;28;80892;-61
2021/09/20 02:07:15;;;;;;;10.68;6.68;;;23.20;52.70;;;;;;6173442;28;80679;-62
2021/09/20 02:10:16;;;;;;;7.00;5.30;;;23.20;52.10;;;;;;6182386;28;81278;-61
2021/09/20 02:13:16;;;;;;;8.55;6.63;;;23.20;52.00;;;;;;6183457;28;81857;-61
2021/09/20 02:16:17;;;;;;;11.38;6.57;;;23.20;52.50;;;;;;6156342;28;80298;-61
2021/09/20 02:19:17;;;;;;;8.38;6.45;;;23.20;52.50;;;;;;6183420;28;81875;-61
2021/09/20 02:22:18;;;;;;;9.77;6.88;;;23.20;52.20;;;;;;6180283;28;81392;-61
2021/09/20 02:25:20;;;;;;;8.23;6.30;;;23.20;52.20;;;;;;6183497;28;80604;-61
2021/09/20 02:28:20;;;;;;;7.75;5.90;;;23.20;52.20;;;;;;6184009;28;81439;-62
2021/09/20 02:31:21;;;;;;;9.50;5.80;;;23.20;52.30;;;;;;6181246;28;81715;-62
2021/09/20 02:34:21;;;;;;;10.30;6.38;;;23.20;52.00;;;;;;6184045;28;80838;-61
2021/09/20 02:37:22;;;;;;;8.52;6.53;;;23.20;52.20;;;;;;6173924;28;83803;-61
2021/09/20 02:40:22;;;;;;;14.02;6.63;;;23.20;52.10;;;;;;6173036;28;81443;-61
2021/09/20 02:43:23;;;;;;;8.65;5.85;;;23.20;52.30;;;;;;6181869;28;80275;-61
2021/09/20 02:46:23;;;;;;;8.65;5.80;;;23.20;52.20;;;;;;6180340;28;81528;-61
2021/09/20 02:49:24;;;;;;;8.65;6.15;;;23.20;52.50;;;;;;6179183;28;80508;-62
2021/09/20 02:52:24;;;;;;;9.93;5.80;;;23.20;52.20;;;;;;6183374;28;81500;-61
2021/09/20 02:55:25;;;;;;;8.43;5.85;;;23.20;52.10;;;;;;6177201;28;80506;-61
2021/09/20 02:58:25;;;;;;;6.72;4.97;;;23.10;52.10;;;;;;6183110;28;81833;-61
2021/09/20 03:01:26;;;;;;;9.15;5.88;;;23.20;52.00;;;;;;6179886;28;81467;-61
2021/09/20 03:04:26;;;;;;;8.50;5.75;;;23.10;51.70;;;;;;6183095;28;80531;-61
2021/09/20 03:07:27;;;;;;;10.07;5.63;;;23.10;51.60;;;;;;6176474;28;80581;-62
2021/09/20 03:10:27;;;;;;;6.57;4.97;;;23.10;51.70;;;;;;6154401;28;81656;-61
2021/09/20 03:13:28;;;;;;;7.50;5.55;;;23.10;52.10;;;;;;6182777;28;80777;-62
2021/09/20 03:16:28;;;;;;;9.10;5.25;;;23.10;51.90;;;;;;6181400;28;81089;-62
2021/09/20 03:19:29;;;;;;;7.45;5.20;;;23.10;52.00;;;;;;6177120;28;82097;-62
2021/09/20 03:22:29;;;;;;;8.30;5.97;;;23.10;51.70;;;;;;6179784;28;80295;-62
2021/09/20 03:25:30;;;;;;;7.20;5.55;;;23.10;52.10;;;;;;6179623;28;80523;-62
2021/09/20 03:28:30;;;;;;;7.60;5.57;;;23.10;51.70;;;;;;6183542;28;80836;-62
2021/09/20 03:31:30;;;;;;;7.57;5.47;;;23.10;51.90;;;;;;6180379;28;80541;-62
2021/09/20 03:34:31;;;;;;;10.73;5.78;;;23.10;51.90;;;;;;6180894;28;80875;-62
2021/09/20 03:37:31;;;;;;;7.45;5.18;;;23.10;52.20;;;;;;6168023;28;81639;-61
2021/09/20 03:40:32;;;;;;;6.63;5.25;;;23.10;52.00;;;;;;6178230;28;81182;-62
2021/09/20 03:43:32;;;;;;;6.97;5.63;;;23.10;51.90;;;;;;6182173;28;80417;-62
2021/09/20 03:46:33;;;;;;;7.68;5.70;;;23.10;52.20;;;;;;6182414;28;80446;-62
2021/09/20 03:49:33;;;;;;;7.63;5.32;;;23.10;51.70;;;;;;6176862;28;80724;-62
2021/09/20 03:52:34;;;;;;;6.28;5.35;;;23.00;51.90;;;;;;6180320;28;81323;-62
2021/09/20 03:55:34;;;;;;;8.38;5.22;;;23.10;51.80;;;;;;6180893;28;81033;-62
2021/09/20 03:58:35;;;;;;;6.93;5.25;;;23.00;51.80;;;;;;6185476;28;80890;-62
2021/09/20 04:01:35;;;;;;;8.20;5.43;;;23.10;51.90;;;;;;6178338;28;80337;-62
2021/09/20 04:04:36;;;;;;;7.65;5.57;;;23.10;51.30;;;;;;6179708;28;83203;-62
2021/09/20 04:07:36;;;;;;;9.18;6.13;;;23.10;51.70;;;;;;6174805;28;80324;-62
2021/09/20 04:10:37;;;;;;;8.60;5.80;;;23.10;51.90;;;;;;6177130;28;80518;-63
2021/09/20 04:13:37;;;;;;;8.27;6.07;;;23.10;51.40;;;;;;6180604;28;80473;-62
2021/09/20 04:16:38;;;;;;;9.00;4.93;;;23.10;51.70;;;;;;6177925;28;81107;-61
2021/09/20 04:19:38;;;;;;;7.82;5.47;;;23.00;51.60;;;;;;6176816;28;80902;-61
2021/09/20 04:22:39;;;;;;;10.73;5.95;;;23.00;51.90;;;;;;6173502;28;80611;-62
2021/09/20 04:25:39;;;;;;;7.97;5.55;;;23.00;52.30;;;;;;6181830;28;80930;-62
2021/09/20 04:28:40;;;;;;;7.30;5.15;;;23.10;51.90;;;;;;6179930;28;80609;-64
2021/09/20 04:31:40;;;;;;;8.55;5.60;;;23.10;52.00;;;;;;6179136;28;81072;-63
2021/09/20 04:34:41;;;;;;;7.97;5.38;;;23.00;51.60;;;;;;6177080;28;80879;-62
2021/09/20 04:37:41;;;;;;;7.18;5.28;;;23.00;51.60;;;;;;6180518;28;80808;-62
2021/09/20 04:40:42;;;;;;;10.57;5.60;;;23.10;52.20;;;;;;6175792;28;81601;-63
2021/09/20 04:43:42;;;;;;;9.15;5.90;;;23.00;52.30;;;;;;6173726;28;81194;-64
2021/09/20 04:46:43;;;;;;;10.20;5.70;;;23.00;51.90;;;;;;6177311;28;81031;-64
2021/09/20 04:49:44;;;;;;;8.40;6.03;;;23.10;52.40;;;;;;6168514;28;81349;-64
2021/09/20 04:52:45;;;;;;;7.00;5.35;;;23.00;52.40;;;;;;6172448;28;80579;-62
2021/09/20 04:55:47;;;;;;;9.63;5.22;;;23.00;52.20;;;;;;6175729;28;82146;-61
2021/09/20 04:58:47;;;;;;;8.00;5.18;;;23.00;52.70;;;;;;6169770;28;80529;-61
2021/09/20 05:01:48;;;;;;;6.65;5.13;;;23.00;52.20;;;;;;6174882;28;80982;-62
2021/09/20 05:04:48;;;;;;;8.07;5.88;;;23.00;52.10;;;;;;6167375;28;81608;-61
2021/09/20 05:07:49;;;;;;;6.93;5.00;;;23.00;52.50;;;;;;6169986;28;82475;-62
2021/09/20 05:10:49;;;;;;;8.98;5.07;;;23.00;52.10;;;;;;6173048;28;82072;-61
2021/09/20 05:13:50;;;;;;;6.90;5.28;;;23.00;52.00;;;;;;6182581;28;80348;-62
2021/09/20 05:16:52;;;;;;;8.95;6.07;;;23.10;52.10;;;;;;6180348;28;80621;-61
2021/09/20 05:19:52;;;;;;;7.15;5.55;;;23.10;52.20;;;;;;6183825;28;80620;-62
2021/09/20 05:22:53;;;;;;;9.60;5.63;;;23.10;52.40;;;;;;6184267;28;80360;-61
2021/09/20 05:25:53;;;;;;;7.90;5.65;;;23.10;52.40;;;;;;6181325;28;80596;-62
2021/09/20 05:28:54;;;;;;;5.95;4.88;;;23.10;52.60;;;;;;6183038;28;83187;-62
2021/09/20 05:31:54;;;;;;;6.35;5.25;;;23.10;52.40;;;;;;6165837;28;80643;-62
2021/09/20 05:34:55;;;;;;;8.13;5.65;;;23.10;52.40;;;;;;6178130;28;80428;-62
2021/09/20 05:37:55;;;;;;;6.63;4.82;;;23.10;52.70;;;;;;6184930;28;81638;-61
2021/09/20 05:40:56;;;;;;;7.45;5.25;;;23.20;52.60;;;;;;6191574;28;80772;-61
2021/09/20 05:43:56;;;;;;;7.28;4.97;;;23.20;52.80;;;;;;6184074;28;80300;-62
2021/09/20 05:46:57;;;;;;;7.60;5.15;;;23.20;53.00;;;;;;6178527;28;80931;-61
2021/09/20 05:49:57;;;;;;;7.05;5.65;;;23.10;53.20;;;;;;6183056;28;80302;-61
2021/09/20 05:52:58;;;;;;;9.50;5.90;;;23.20;52.70;;;;;;6180145;28;80692;-61
2021/09/20 05:55:58;;;;;;;9.13;5.53;;;23.20;52.80;;;;;;6178658;28;80506;-61
2021/09/20 05:58:59;;;;;;;8.18;5.40;;;23.20;53.00;;;;;;6170764;28;81790;-61
2021/09/20 06:01:59;;;;;;;10.30;6.53;;;23.10;52.70;;;;;;6170909;28;80621;-61
2021/09/20 06:05:00;;;;;;;10.23;6.50;;;23.10;53.30;;;;;;6174548;28;80793;-61
2021/09/20 06:08:01;;;;;;;12.05;7.32;;;23.20;53.20;;;;;;6178683;28;80415;-60
2021/09/20 06:11:01;;;;;;;9.40;6.22;;;23.10;52.90;;;;;;6180761;28;80647;-61
2021/09/20 06:14:02;;;;;;;10.98;6.60;;;23.10;53.70;;;;;;6181441;28;80378;-63
2021/09/20 06:17:02;;;;;;;11.25;6.75;;;23.10;53.60;;;;;;6179787;28;81935;-60
2021/09/20 06:20:03;;;;;;;10.05;6.30;;;23.10;53.10;;;;;;6177004;28;80543;-60
2021/09/20 06:23:03;;;;;;;11.23;6.68;;;23.10;53.50;;;;;;6184353;28;81964;-60
2021/09/20 06:26:04;;;;;;;12.05;6.88;;;23.10;53.40;;;;;;6184232;28;80709;-60
2021/09/20 06:29:04;;;;;;;9.88;6.10;;;23.10;53.20;;;;;;6187177;28;80700;-60
2021/09/20 06:32:05;;;;;;;8.82;6.22;;;23.10;53.20;;;;;;6181617;28;80378;-59
2021/09/20 06:35:05;;;;;;;9.50;6.35;;;23.10;53.30;;;;;;6181753;28;82073;-61
2021/09/20 06:38:06;;;;;;;8.27;5.50;;;23.10;52.90;;;;;;6182331;28;80423;-61
2021/09/20 06:41:06;;;;;;;12.20;6.60;;;23.10;52.70;;;;;;6183785;28;80621;-61
2021/09/20 06:44:07;;;;;;;12.35;5.90;;;23.10;52.90;;;;;;6177372;28;80682;-63
2021/09/20 06:47:09;;;;;;;10.60;5.63;;;23.10;53.00;;;;;;6181120;28;80401;-63
2021/09/20 06:50:09;;;;;;;10.20;4.97;;;23.10;53.30;;;;;;6179892;28;81479;-62
2021/09/20 06:53:10;;;;;;;9.45;6.20;;;23.10;53.30;;;;;;6184068;28;80972;-62
2021/09/20 06:56:10;;;;;;;7.57;5.22;;;23.00;52.70;;;;;;6176131;28;80536;-61
2021/09/20 06:59:10;;;;;;;8.85;5.78;;;23.00;52.30;;;;;;6178351;28;80921;-63
2021/09/20 07:02:11;;;;;;;8.77;5.63;;;23.10;53.20;;;;;;6182305;28;80401;-61
2021/09/20 07:05:12;;;;;;;9.23;6.13;;;23.00;52.80;;;;;;6178474;28;82356;-61
2021/09/20 07:08:12;;;;;;;10.07;5.55;;;23.10;52.60;;;;;;6170044;28;80398;-63
2021/09/20 07:11:13;;;;;;;8.10;5.57;;;23.10;52.90;;;;;;6181795;28;81219;-63
2021/09/20 07:14:13;;;;;;;11.60;5.63;;;23.10;52.90;;;;;;6181514;28;80369;-63
2021/09/20 07:17:14;;;;;;;9.80;6.13;;;23.10;52.90;;;;;;6176625;28;81779;-61
2021/09/20 07:20:14;;;;;;;12.52;5.53;;;23.10;53.00;;;;;;6178562;28;81061;-61
2021/09/20 07:23:15;;;;;;;12.43;6.43;;;23.10;53.40;;;;;;6178428;28;81295;-62
2021/09/20 07:26:15;;;;;;;11.75;5.68;;;23.10;53.90;;;;;;6167336;28;80665;-62
2021/09/20 07:29:16;;;;;;;18.55;6.25;;;23.10;54.00;;;;;;6172685;28;80935;-62
2021/09/20 07:32:17;;;;;;;15.82;5.95;;;23.10;54.30;;;;;;6174416;28;80274;-62
2021/09/20 07:35:17;;;;;;;12.63;5.68;;;23.10;54.80;;;;;;6173371;28;80443;-62
2021/09/20 07:38:18;;;;;;;17.50;6.68;;;23.10;54.00;;;;;;6178762;28;81570;-61
2021/09/20 07:41:18;;;;;;;361.35;113.53;;;23.10;54.60;;;;;;6170062;28;81340;-62
2021/09/20 07:44:19;;;;;;;620.08;218.48;;;23.10;54.80;;;;;;6169695;28;85737;-60
2021/09/20 07:47:19;;;;;;;987.97;380.95;;;23.10;54.30;;;;;;6175894;28;85643;-62
2021/09/20 07:50:20;;;;;;;756.75;289.38;;;23.10;54.10;;;;;;6172457;28;86626;-62
2021/09/20 07:53:20;;;;;;;792.40;310.77;;;23.10;53.70;;;;;;6172004;28;86985;-62
2021/09/20 07:56:21;;;;;;;838.72;326.92;;;23.10;53.60;;;;;;6171585;28;86473;-62
2021/09/20 07:59:21;;;;;;;1161.38;470.92;;;23.10;53.90;;;;;;6169386;28;85688;-62
2021/09/20 08:02:22;;;;;;;1309.70;516.45;;;23.10;53.90;;;;;;6168881;28;86499;-61
2021/09/20 08:05:22;;;;;;;1204.82;496.45;;;23.10;53.50;;;;;;6171357;28;85770;-61
2021/09/20 08:08:23;;;;;;;1313.07;537.97;;;23.10;53.00;;;;;;6171876;28;86230;-62
2021/09/20 08:11:23;;;;;;;1201.32;488.27;;;23.10;53.70;;;;;;6169063;28;85786;-61
2021/09/20 08:14:24;;;;;;;1166.18;480.00;;;23.10;53.10;;;;;;6170039;28;89635;-62
2021/09/20 08:17:25;;;;;;;1090.55;458.33;;;23.10;53.50;;;;;;6165001;28;85768;-61
2021/09/20 08:20:25;;;;;;;1003.67;418.73;;;23.10;53.60;;;;;;6165279;28;85678;-61
2021/09/20 08:23:27;;;;;;;919.13;384.55;;;23.20;53.50;;;;;;6164961;28;87473;-62
2021/09/20 08:26:28;;;;;;;880.95;372.83;;;23.20;53.20;;;;;;6172327;28;85701;-61
2021/09/20 08:29:29;;;;;;;872.65;354.17;;;23.10;53.10;;;;;;6165676;28;86296;-61
2021/09/20 08:32:29;;;;;;;798.60;333.95;;;23.10;53.20;;;;;;6169577;28;85835;-61
2021/09/20 08:35:30;;;;;;;739.67;304.80;;;23.10;52.90;;;;;;6174387;28;85688;-62
2021/09/20 08:38:30;;;;;;;694.85;282.08;;;23.10;53.40;;;;;;6169413;28;86351;-62
2021/09/20 08:41:31;;;;;;;691.35;279.67;;;23.10;53.00;;;;;;6171414;28;85900;-62
2021/09/20 08:44:31;;;;;;;628.35;251.82;;;23.10;53.30;;;;;;6165133;28;87415;-62
2021/09/20 08:47:32;;;;;;;599.97;232.85;;;23.10;53.30;;;;;;6162231;28;85662;-61
2021/09/20 08:50:32;;;;;;;589.92;231.27;;;23.10;53.00;;;;;;6177180;28;86667;-62
2021/09/20 08:53:33;;;;;;;574.13;220.13;;;23.10;53.10;;;;;;6176769;28;86307;-62
2021/09/20 08:56:34;;;;;;;568.70;208.50;;;23.20;53.00;;;;;;6179758;28;85580;-62
2021/09/20 08:59:35;;;;;;;511.77;185.65;;;23.10;52.70;;;;;;6172629;28;85984;-62
2021/09/20 09:02:35;;;;;;;469.98;171.70;;;23.10;52.80;;;;;;6175300;28;87751;-62
2021/09/20 09:05:36;;;;;;;483.00;173.35;;;23.10;52.90;;;;;;6175443;28;87450;-62
2021/09/20 09:08:36;;;;;;;441.23;158.55;;;23.10;52.70;;;;;;6178318;28;85844;-62
2021/09/20 09:11:37;;;;;;;418.60;150.80;;;23.10;52.90;;;;;;6179010;28;85620;-62
2021/09/20 09:14:37;;;;;;;399.13;146.85;;;23.10;52.80;;;;;;6168392;28;85312;-63
2021/09/20 09:17:38;;;;;;;378.20;139.98;;;23.10;52.70;;;;;;6165390;28;86217;-62
2021/09/20 09:20:38;;;;;;;343.88;126.82;;;23.10;53.40;;;;;;6161425;28;85783;-63
2021/09/20 09:23:39;;;;;;;345.92;119.40;;;23.20;52.60;;;;;;6170014;28;86106;-63
2021/09/20 09:26:39;;;;;;;314.98;113.68;;;23.10;52.70;;;;;;6177406;28;85913;-62
2021/09/20 09:29:40;;;;;;;297.65;111.32;;;23.10;53.30;;;;;;6172806;28;85365;-62
2021/09/20 09:32:40;;;;;;;274.42;105.40;;;23.10;52.60;;;;;;6178380;28;86473;-63
2021/09/20 09:35:41;;;;;;;272.48;98.38;;;23.10;52.30;;;;;;6173700;28;86098;-62
2021/09/20 09:38:41;;;;;;;246.25;95.63;;;23.10;52.90;;;;;;6178343;28;85622;-63
2021/09/20 09:41:42;;;;;;;224.73;85.97;;;23.10;52.80;;;;;;6177958;28;83649;-63
2021/09/20 09:44:42;;;;;;;216.13;80.47;;;23.10;53.30;;;;;;6178543;28;83058;-62
2021/09/20 09:47:43;;;;;;;216.88;80.38;;;23.10;53.20;;;;;;6180293;28;83350;-62
2021/09/20 09:50:43;;;;;;;189.10;73.60;;;23.10;52.80;;;;;;6180669;28;83825;-63
2021/09/20 09:53:44;;;;;;;194.05;72.53;;;23.10;53.20;;;;;;6179965;28;83743;-63
2021/09/20 09:56:44;;;;;;;184.60;70.53;;;23.10;53.50;;;;;;6179641;28;83944;-62
2021/09/20 09:59:45;;;;;;;184.35;68.68;;;23.10;52.90;;;;;;6175194;28;83234;-62
2021/09/20 10:02:45;;;;;;;168.27;65.03;;;23.10;53.00;;;;;;6170863;28;83378;-63
2021/09/20 10:05:49;;;;;;;152.98;58.42;;;23.10;53.20;;;;;;6170317;28;90590;-63
2021/09/20 10:08:49;;;;;;;153.90;58.55;;;23.10;53.10;;;;;;6180367;28;83716;-63
2021/09/20 10:11:50;;;;;;;142.93;53.95;;;23.10;53.20;;;;;;6178063;28;84223;-63
2021/09/20 10:14:50;;;;;;;129.43;51.53;;;23.10;53.50;;;;;;6180188;28;83188;-63
2021/09/20 10:17:50;;;;;;;129.85;48.88;;;23.10;53.50;;;;;;6178184;28;83905;-62
2021/09/20 10:20:51;;;;;;;124.00;47.95;;;23.10;53.00;;;;;;6180459;28;83818;-63
2021/09/20 10:23:51;;;;;;;116.85;47.03;;;23.10;53.10;;;;;;6179786;28;84054;-62
2021/09/20 10:26:52;;;;;;;114.35;43.50;;;23.10;52.90;;;;;;6157911;28;83288;-62
2021/09/20 10:29:52;;;;;;;108.30;42.17;;;23.10;53.10;;;;;;6173677;28;83260;-62
2021/09/20 10:32:53;;;;;;;104.05;39.95;;;23.10;53.10;;;;;;6178435;28;86036;-62
2021/09/20 10:35:54;;;;;;;99.63;38.17;;;23.00;53.20;;;;;;6176297;28;84352;-62
2021/09/20 10:38:55;;;;;;;96.47;38.30;;;23.00;53.20;;;;;;6175199;28;84124;-62
2021/09/20 10:41:55;;;;;;;93.05;37.30;;;23.00;52.80;;;;;;6169356;28;83456;-62
2021/09/20 10:44:56;;;;;;;88.97;36.35;;;23.00;52.70;;;;;;6178485;28;83260;-62
2021/09/20 10:47:56;;;;;;;90.32;33.20;;;23.00;52.90;;;;;;6177753;28;85616;-62
2021/09/20 10:50:57;;;;;;;77.10;32.58;;;23.00;52.40;;;;;;6172763;28;82867;-62
2021/09/20 10:53:57;;;;;;;67.90;28.90;;;23.10;52.50;;;;;;6177689;28;83868;-63
2021/09/20 10:56:58;;;;;;;78.10;31.10;;;23.10;52.40;;;;;;6179371;28;83305;-64
2021/09/20 10:59:58;;;;;;;71.60;28.10;;;23.00;52.60;;;;;;6176315;28;85777;-62
2021/09/20 11:02:58;;;;;;;66.15;27.38;;;23.00;52.60;;;;;;6179136;28;90312;-62
2021/09/20 11:05:59;;;;;;;59.50;24.33;;;23.00;52.50;;;;;;6178900;28;84110;-62
2021/09/20 11:09:02;;;;;;;55.10;24.52;;;23.10;52.90;;;;;;6178904;28;83151;-62
2021/09/20 11:12:03;;;;;;;52.17;22.33;;;23.10;51.60;;;;;;6178856;28;83027;-64
2021/09/20 11:15:03;;;;;;;60.33;24.90;;;23.00;52.20;;;;;;6177173;28;83442;-63
2021/09/20 11:18:04;;;;;;;49.78;21.80;;;23.00;52.10;;;;;;6171645;28;83519;-62
2021/09/20 11:21:06;;;;;;;50.70;21.75;;;23.00;52.60;;;;;;6178665;28;83566;-62
2021/09/20 11:24:06;;;;;;;42.30;19.65;;;23.00;52.40;;;;;;6176638;28;83916;-61
2021/09/20 11:27:07;;;;;;;45.05;19.48;;;23.10;52.30;;;;;;6179249;28;84031;-63
2021/09/20 11:30:09;;;;;;;39.72;17.67;;;23.00;52.00;;;;;;6171569;28;84014;-61
2021/09/20 11:33:11;;;;;;;38.17;17.65;;;23.00;51.90;;;;;;6171561;28;83214;-62
2021/09/20 11:36:11;;;;;;;34.75;15.52;;;23.00;52.20;;;;;;6166682;28;83184;-62
2021/09/20 11:39:12;;;;;;;34.60;15.70;;;23.00;52.10;;;;;;6182976;28;83810;-61
2021/09/20 11:42:14;;;;;;;35.10;15.52;;;23.00;51.80;;;;;;6171512;28;83343;-62
2021/09/20 11:45:15;;;;;;;31.30;14.25;;;23.00;51.80;;;;;;6176747;28;87203;-62
2021/09/20 11:48:16;;;;;;;35.67;14.80;;;23.10;51.80;;;;;;6175856;28;83621;-62
2021/09/20 11:51:16;;;;;;;35.15;14.90;;;23.00;52.20;;;;;;6178403;28;83453;-62
2021/09/20 11:54:17;;;;;;;37.97;15.60;;;23.10;52.00;;;;;;6176509;28;84288;-62
2021/09/20 11:57:18;;;;;;;34.97;14.15;;;23.10;52.40;;;;;;6175694;28;84090;-62
2021/09/20 12:00:19;;;;;;;32.95;13.25;;;23.10;52.10;;;;;;6180849;28;82929;-62
2021/09/20 12:03:24;;;;;;;31.60;14.15;;;23.10;51.40;;;;;;6175966;28;83959;-62
2021/09/20 12:06:24;;;;;;;30.03;13.03;;;23.10;52.40;;;;;;6171187;28;83183;-65
2021/09/20 12:09:25;;;;;;;29.45;13.52;;;23.10;52.30;;;;;;6177361;28;83120;-62
2021/09/20 12:12:25;;;;;;;27.67;12.63;;;23.10;52.00;;;;;;6177950;28;83231;-61
2021/09/20 12:15:26;;;;;;;27.45;13.02;;;23.10;51.60;;;;;;6175933;28;84443;-61
2021/09/20 12:18:27;;;;;;;28.27;11.60;;;23.10;51.80;;;;;;6170407;28;82915;-62
2021/09/20 12:21:29;;;;;;;26.77;11.68;;;23.10;51.70;;;;;;6169056;28;83332;-63
2021/09/20 12:24:32;;;;;;;22.38;10.20;;;23.10;51.80;;;;;;6174792;28;84663;-63
2021/09/20 12:27:32;;;;;;;27.00;10.45;;;23.10;52.00;;;;;;6161168;28;86107;-61
2021/09/20 12:30:33;;;;;;;28.38;11.52;;;23.10;51.50;;;;;;6182804;28;83433;-63
2021/09/20 12:33:34;;;;;;;21.13;10.10;;;23.00;51.40;;;;;;6175102;28;84045;-63
2021/09/20 12:36:35;;;;;;;21.48;9.95;;;23.10;52.00;;;;;;6159758;28;82880;-62
2021/09/20 12:39:37;;;;;;;23.52;9.65;;;23.10;51.60;;;;;;6178439;28;83272;-63
2021/09/20 12:42:37;;;;;;;20.35;10.10;;;23.10;51.90;;;;;;6173680;28;80582;-62
2021/09/20 12:45:39;;;;;;;18.63;8.35;;;23.10;51.70;;;;;;6179569;28;83174;-62
2021/09/20 12:48:39;;;;;;;20.52;9.20;;;23.10;51.80;;;;;;6187899;28;83025;-63
2021/09/20 12:51:40;;;;;;;16.52;8.82;;;23.00;51.80;;;;;;6183803;28;81642;-63
2021/09/20 12:54:40;;;;;;;19.00;8.52;;;23.00;51.50;;;;;;6184595;28;80546;-62
2021/09/20 12:57:41;;;;;;;18.00;8.73;;;23.00;51.80;;;;;;6178729;28;80770;-62
2021/09/20 13:00:41;;;;;;;17.30;8.85;;;23.00;52.30;;;;;;6182463;28;80399;-63
2021/09/20 13:03:41;;;;;;;14.57;8.10;;;23.00;52.30;;;;;;6183630;28;80251;-63
2021/09/20 13:06:42;;;;;;;20.30;8.80;;;23.00;53.20;;;;;;6172499;28;80429;-63
2021/09/20 13:09:43;;;;;;;16.73;9.32;;;23.10;53.70;;;;;;6177217;28;80234;-63
2021/09/20 13:12:46;;;;;;;18.52;9.20;;;23.10;53.90;;;;;;6174665;28;81970;-63
2021/09/20 13:15:47;;;;;;;20.33;11.07;;;23.10;55.20;;;;;;6177140;28;82720;-63
2021/09/20 13:18:48;;;;;;;23.00;11.27;;;23.10;55.50;;;;;;6173743;28;83063;-62
2021/09/20 13:21:48;;;;;;;22.17;9.95;;;23.10;57.00;;;;;;6176467;28;84172;-62
2021/09/20 13:24:49;;;;;;;16.25;9.15;;;23.10;55.20;;;;;;6178091;28;83692;-62
2021/09/20 13:27:49;;;;;;;16.23;8.55;;;23.20;57.00;;;;;;6182459;28;81893;-63
2021/09/20 13:30:50;;;;;;;14.63;7.53;;;23.10;56.90;;;;;;6178018;28;80740;-61
2021/09/20 13:33:50;;;;;;;14.80;8.35;;;23.20;55.90;;;;;;6177122;28;80600;-61
2021/09/20 13:36:51;;;;;;;17.17;8.20;;;23.20;55.50;;;;;;6182656;28;80715;-61
2021/09/20 13:39:51;;;;;;;16.80;8.38;;;23.10;55.90;;;;;;6183515;28;80739;-61
2021/09/20 13:42:52;;;;;;;15.75;8.05;;;23.20;56.70;;;;;;6175956;28;81012;-61
2021/09/20 13:45:52;;;;;;;22.45;7.90;;;23.20;56.00;;;;;;6177605;28;82111;-61
2021/09/20 13:48:53;;;;;;;23.50;8.98;;;23.20;57.30;;;;;;6183561;28;80402;-60
2021/09/20 13:51:53;;;;;;;20.38;8.57;;;23.20;57.70;;;;;;6184699;28;80659;-62
2021/09/20 13:54:54;;;;;;;22.23;8.63;;;23.20;57.50;;;;;;6177689;28;80514;-63
2021/09/20 13:57:55;;;;;;;23.35;8.70;;;23.20;57.30;;;;;;6180149;28;83066;-62
2021/09/20 14:00:57;;;;;;;24.45;8.82;;;23.20;56.70;;;;;;6180342;28;81677;-62
2021/09/20 14:03:58;;;;;;;18.50;7.95;;;23.20;56.20;;;;;;6177720;28;80491;-61
2021/09/20 14:06:59;;;;;;;20.23;8.07;;;23.20;56.30;;;;;;6180858;28;82024;-61
2021/09/20 14:09:59;;;;;;;14.68;7.28;;;23.20;56.00;;;;;;6175695;28;80791;-61
2021/09/20 14:13:00;;;;;;;14.32;7.03;;;23.10;55.80;;;;;;6182618;28;80533;-61
2021/09/20 14:16:00;;;;;;;16.92;7.32;;;23.20;55.90;;;;;;6183290;28;80695;-62
2021/09/20 14:19:01;;;;;;;13.20;6.20;;;23.10;55.50;;;;;;6182741;28;81198;-61
2021/09/20 14:22:01;;;;;;;18.98;6.85;;;23.10;55.40;;;;;;6183477;28;80645;-61
2021/09/20 14:25:02;;;;;;;12.45;6.35;;;23.10;55.40;;;;;;6181660;28;81717;-62
2021/09/20 14:28:02;;;;;;;16.75;6.47;;;23.10;55.20;;;;;;6183634;28;80416;-62
2021/09/20 14:31:03;;;;;;;13.75;6.65;;;23.10;55.00;;;;;;6173395;28;81303;-62
2021/09/20 14:34:03;;;;;;;12.45;5.93;;;23.10;54.80;;;;;;6180696;28;80596;-63
2021/09/20 14:37:04;;;;;;;13.35;6.00;;;23.10;55.00;;;;;;6179922;28;81277;-62
2021/09/20 14:40:04;;;;;;;19.67;7.28;;;23.10;54.90;;;;;;6181841;28;81256;-61
2021/09/20 14:43:05;;;;;;;24.42;6.55;;;23.10;55.00;;;;;;6181869;28;80399;-61
2021/09/20 14:46:05;;;;;;;12.80;6.50;;;23.10;54.80;;;;;;6179943;28;80910;-61
2021/09/20 14:49:06;;;;;;;10.82;5.75;;;23.10;54.80;;;;;;6178322;28;81086;-61
2021/09/20 14:52:06;;;;;;;12.25;5.70;;;23.10;55.10;;;;;;6179906;28;82108;-62
2021/09/20 14:55:07;;;;;;;14.07;5.93;;;23.10;55.60;;;;;;6171930;28;81510;-62
2021/09/20 14:58:08;;;;;;;8.93;5.45;;;23.10;54.60;;;;;;6179743;28;81072;-62
2021/09/20 15:01:08;;;;;;;15.18;6.68;;;23.10;54.60;;;;;;6182459;28;80842;-62
2021/09/20 15:04:09;;;;;;;12.15;5.82;;;23.10;55.20;;;;;;6184209;28;81872;-62
2021/09/20 15:07:09;;;;;;;13.90;6.05;;;23.10;54.50;;;;;;6183855;28;80582;-63
2021/09/20 15:10:10;;;;;;;11.82;5.95;;;23.10;54.60;;;;;;6188649;28;80905;-63
2021/09/20 15:13:10;;;;;;;10.57;5.80;;;23.10;54.30;;;;;;6179983;28;80612;-64
2021/09/20 15:16:11;;;;;;;13.98;5.85;;;23.00;54.40;;;;;;6185150;28;81497;-65
2021/09/20 15:19:12;;;;;;;16.23;8.75;;;23.00;54.60;;;;;;6179486;28;81525;-64
2021/09/20 15:22:12;;;;;;;14.80;8.25;;;23.00;54.10;;;;;;6180721;28;80877;-63